createdAt,value
2023-01-10T00:01:39.850Z,48.01
2023-01-10T00:04:06.899Z,48.14
2023-01-10T00:06:37.040Z,47.82
2023-01-10T00:09:07.201Z,48.19
2023-01-10T00:11:52.612Z,48.09
2023-01-10T00:14:29.014Z,47.71
2023-01-10T00:16:57.702Z,48.00
2023-01-10T00:19:25.265Z,48.26
2023-01-10T00:21:52.775Z,47.50
2023-01-10T00:24:20.915Z,47.57
2023-01-10T00:26:56.252Z,47.85
2023-01-10T00:29:32.132Z,47.91
2023-01-10T00:38:46.667Z,48.43
2023-01-10T00:41:35.649Z,48.85
2023-01-10T00:44:06.814Z,48.92
2023-01-10T00:46:34.378Z,49.12
2023-01-10T00:49:02.150Z,49.05
2023-01-10T00:51:31.055Z,49.25
2023-01-10T00:53:58.822Z,49.39
2023-01-10T00:56:26.287Z,49.19
2023-01-10T00:58:53.626Z,49.14
2023-01-10T01:01:21.027Z,50.05
2023-01-10T01:03:48.217Z,49.65
2023-01-10T01:06:16.285Z,49.86
2023-01-10T01:08:43.330Z,49.23
2023-01-10T01:11:13.135Z,49.86
2023-01-10T01:13:42.496Z,49.93
2023-01-10T01:16:10.084Z,49.47
2023-01-10T01:18:37.173Z,50.43
2023-01-10T01:21:08.596Z,50.08
2023-01-10T01:23:36.119Z,50.14
2023-01-10T01:26:05.995Z,50.41
2023-01-10T01:28:33.688Z,50.82
2023-01-10T01:31:10.611Z,50.48
2023-01-10T01:33:37.933Z,50.72
2023-01-10T01:36:10.106Z,51.60
2023-01-10T01:38:41.025Z,50.21
2023-01-10T01:41:32.025Z,52.20
2023-01-10T01:44:07.631Z,51.39
2023-01-10T01:46:37.686Z,52.02
2023-01-10T01:49:12.566Z,50.96
2023-01-10T01:51:39.738Z,51.21
2023-01-10T01:54:12.174Z,52.12
2023-01-10T01:56:46.533Z,51.43
2023-01-10T01:59:22.088Z,52.47
2023-01-10T02:02:10.586Z,52.31
2023-01-10T02:04:57.626Z,51.91
2023-01-10T02:07:26.412Z,52.04
2023-01-10T02:10:05.265Z,52.49
2023-01-10T02:12:33.343Z,52.53
2023-01-10T02:15:01.068Z,53.05
2023-01-10T02:17:28.114Z,53.28
2023-01-10T02:20:03.441Z,52.62
2023-01-10T02:23:10.327Z,53.64
2023-01-10T02:26:19.597Z,54.04
2023-01-10T02:29:21.853Z,54.30
2023-01-10T02:31:48.766Z,53.91
2023-01-10T02:37:38.079Z,53.79
2023-01-10T02:40:19.600Z,55.36
2023-01-10T02:42:54.001Z,54.09
2023-01-10T02:45:52.570Z,54.66
2023-01-10T02:48:19.596Z,54.51
2023-01-10T02:51:19.265Z,55.08
2023-01-10T02:53:56.792Z,54.65
2023-01-10T02:56:54.535Z,55.10
2023-01-10T02:59:43.200Z,54.18
2023-01-10T03:02:16.240Z,54.97
2023-01-10T03:04:53.668Z,54.42
2023-01-10T03:07:27.633Z,55.52
2023-01-10T03:10:01.866Z,55.20
2023-01-10T03:12:31.694Z,54.75
2023-01-10T03:15:00.869Z,55.33
2023-01-10T03:17:33.580Z,55.53
2023-01-10T03:20:05.498Z,55.87
2023-01-10T03:22:36.273Z,55.71
2023-01-10T03:25:07.319Z,55.48
2023-01-10T03:27:40.179Z,55.77
2023-01-10T03:30:34.234Z,56.75
2023-01-10T03:33:01.701Z,55.76
2023-01-10T03:35:54.650Z,55.73
2023-01-10T03:38:26.218Z,55.25
2023-01-10T03:41:02.167Z,55.98
2023-01-10T03:44:14.079Z,55.29
2023-01-10T03:46:52.759Z,55.30
2023-01-10T03:49:23.377Z,56.30
2023-01-10T03:51:50.989Z,55.39
2023-01-10T03:54:18.153Z,55.59
2023-01-10T03:56:50.108Z,55.81
2023-01-10T03:59:23.491Z,55.83
2023-01-10T04:01:51.090Z,55.95
2023-01-10T04:04:25.627Z,56.23
2023-01-10T04:06:52.534Z,56.31
2023-01-10T04:09:25.593Z,56.82
2023-01-10T04:11:56.283Z,56.26
2023-01-10T04:14:23.341Z,57.00
2023-01-10T04:16:50.376Z,56.60
2023-01-10T04:19:17.367Z,57.14
2023-01-10T04:21:44.451Z,56.99
2023-01-10T04:24:11.463Z,56.93
2023-01-10T04:26:38.466Z,56.86
2023-01-10T04:29:10.923Z,56.78
2023-01-10T04:31:40.734Z,56.88
2023-01-10T04:34:08.923Z,57.01
2023-01-10T04:36:36.737Z,56.81
2023-01-10T04:39:04.926Z,56.86
2023-01-10T04:41:40.010Z,56.87
2023-01-10T04:44:10.230Z,56.97
2023-01-10T04:46:37.193Z,57.17
2023-01-10T04:49:04.530Z,56.92
2023-01-10T04:51:31.585Z,57.08
2023-01-10T04:53:58.527Z,56.58
2023-01-10T04:56:25.932Z,56.73
2023-01-10T04:58:54.094Z,56.79
2023-01-10T05:01:24.155Z,56.86
2023-01-10T05:03:53.658Z,56.64
2023-01-10T05:06:22.153Z,56.85
2023-01-10T05:08:49.263Z,56.80
2023-01-10T05:11:16.461Z,56.65
2023-01-10T05:13:43.515Z,56.77
2023-01-10T05:16:10.560Z,56.92
2023-01-10T05:18:37.601Z,56.67
2023-01-10T05:21:08.022Z,56.59
2023-01-10T05:23:35.835Z,56.64
2023-01-10T05:26:11.072Z,57.03
2023-01-10T05:28:38.466Z,56.98
2023-01-10T05:31:13.415Z,56.84
2023-01-10T05:33:43.872Z,56.67
2023-01-10T05:36:10.887Z,56.77
2023-01-10T05:38:37.968Z,57.38
2023-01-10T05:41:05.195Z,56.69
2023-01-10T05:43:32.533Z,56.88
2023-01-10T05:45:59.564Z,56.59
2023-01-10T05:48:26.587Z,57.02
2023-01-10T05:50:53.541Z,56.83
2023-01-10T05:53:20.629Z,56.78
2023-01-10T05:55:59.016Z,57.04
2023-01-10T05:58:27.908Z,57.22
2023-01-10T06:00:56.247Z,56.92
2023-01-10T06:03:23.640Z,56.77
2023-01-10T06:05:50.645Z,57.13
2023-01-10T06:08:17.658Z,56.92
2023-01-10T06:10:44.839Z,56.94
2023-01-10T06:13:12.434Z,57.10
2023-01-10T06:15:39.766Z,56.75
2023-01-10T06:18:07.322Z,57.33
2023-01-10T06:20:34.245Z,56.90
2023-01-10T06:23:04.710Z,56.47
2023-01-10T06:25:42.640Z,56.89
2023-01-10T06:28:10.857Z,56.54
2023-01-10T06:30:38.730Z,57.22
2023-01-10T06:33:08.800Z,57.28
2023-01-10T06:35:36.493Z,57.27
2023-01-10T06:38:04.641Z,57.26
2023-01-10T06:40:31.969Z,56.78
2023-01-10T06:42:59.357Z,57.00
2023-01-10T06:45:26.351Z,57.14
2023-01-10T06:47:53.586Z,57.22
2023-01-10T06:50:20.586Z,57.32
2023-01-10T06:53:04.854Z,57.56
2023-01-10T06:55:32.146Z,57.12
2023-01-10T06:58:04.751Z,57.22
2023-01-10T07:00:32.495Z,57.55
2023-01-10T07:03:00.793Z,57.42
2023-01-10T07:05:29.812Z,57.13
2023-01-10T07:07:58.831Z,56.50
2023-01-10T07:10:25.956Z,56.61
2023-01-10T07:12:55.468Z,57.10
2023-01-10T07:15:22.617Z,57.46
2023-01-10T07:17:49.649Z,57.00
2023-01-10T07:20:17.067Z,56.62
2023-01-10T07:22:44.110Z,56.79
2023-01-10T07:25:11.088Z,56.46
2023-01-10T07:27:40.064Z,56.02
2023-01-10T07:30:07.954Z,56.53
2023-01-10T07:32:35.241Z,56.20
2023-01-10T07:35:02.536Z,55.73
2023-01-10T07:37:29.515Z,55.19
2023-01-10T07:39:56.514Z,54.85
2023-01-10T07:42:24.089Z,53.91
2023-01-10T07:44:51.017Z,50.77
2023-01-10T07:47:18.184Z,46.01
2023-01-10T07:49:45.107Z,42.64
2023-01-10T07:52:12.015Z,40.49
2023-01-10T07:54:39.031Z,38.39
2023-01-10T07:57:05.970Z,35.97
2023-01-10T07:59:32.906Z,34.11
2023-01-10T08:01:59.803Z,32.53
2023-01-10T08:04:27.314Z,31.05
2023-01-10T08:06:55.424Z,29.71
2023-01-10T08:09:22.424Z,28.31
2023-01-10T08:11:49.472Z,27.24
2023-01-10T08:14:16.404Z,26.33
2023-01-10T08:16:43.356Z,24.91
2023-01-10T08:19:12.616Z,24.04
2023-01-10T08:21:39.781Z,24.17
2023-01-10T08:24:07.301Z,24.15
2023-01-10T08:26:34.469Z,23.71
2023-01-10T08:29:01.859Z,24.15
2023-01-10T08:31:28.934Z,23.86
2023-01-10T08:33:57.058Z,23.87
2023-01-10T08:36:24.457Z,22.22
2023-01-10T08:38:54.875Z,21.50
2023-01-10T08:41:21.883Z,20.49
2023-01-10T08:43:52.042Z,19.62
2023-01-10T08:46:20.576Z,19.84
2023-01-10T08:48:50.455Z,20.17
2023-01-10T08:51:18.177Z,18.33
2023-01-10T08:53:45.514Z,17.95
2023-01-10T08:56:12.517Z,16.92
2023-01-10T08:58:39.552Z,16.28
2023-01-10T09:01:12.009Z,15.70
2023-01-10T09:03:39.983Z,16.06
2023-01-10T09:06:08.381Z,15.20
2023-01-10T09:08:36.144Z,17.43
2023-01-10T09:11:03.680Z,19.24
2023-01-10T09:13:31.173Z,16.89
2023-01-10T09:15:58.518Z,16.24
2023-01-10T09:18:26.391Z,15.02
2023-01-10T09:20:53.715Z,15.41
2023-01-10T09:23:22.590Z,16.21
2023-01-10T09:25:52.375Z,15.29
2023-01-10T09:28:20.529Z,15.47
2023-01-10T09:30:48.025Z,15.50
2023-01-10T09:33:15.487Z,13.75
2023-01-10T09:35:43.405Z,13.36
2023-01-10T09:38:14.795Z,12.98
2023-01-10T09:41:00.435Z,12.23
2023-01-10T09:44:04.770Z,12.69
2023-01-10T09:46:34.986Z,13.93
2023-01-10T09:49:20.600Z,15.42
2023-01-10T09:51:52.582Z,15.71
2023-01-10T09:54:37.946Z,15.98
2023-01-10T09:57:05.043Z,16.18
2023-01-10T09:59:43.062Z,16.50
2023-01-10T10:02:36.835Z,18.04
2023-01-10T10:05:21.680Z,17.25
2023-01-10T10:07:54.599Z,18.05
2023-01-10T10:10:43.715Z,16.25
2023-01-10T10:13:28.973Z,17.46
2023-01-10T10:16:15.241Z,16.87
2023-01-10T10:19:02.187Z,16.05
2023-01-10T10:21:48.240Z,14.93
2023-01-10T10:24:30.355Z,14.56
2023-01-10T10:27:09.419Z,14.48
2023-01-10T10:29:46.493Z,15.20
2023-01-10T10:32:25.449Z,14.11
2023-01-10T10:35:08.354Z,14.26
2023-01-10T10:37:45.971Z,13.36
2023-01-10T10:40:18.973Z,13.33
2023-01-10T10:42:50.663Z,13.46
2023-01-10T10:45:20.032Z,13.40
2023-01-10T10:48:01.501Z,12.70
2023-01-10T10:50:34.909Z,13.16
2023-01-10T10:53:06.072Z,13.26
2023-01-10T10:55:37.951Z,13.41
2023-01-10T10:58:07.773Z,14.59
2023-01-10T11:00:35.011Z,15.38
2023-01-10T11:03:27.354Z,16.12
2023-01-10T11:05:55.442Z,17.17
2023-01-10T11:08:23.672Z,18.20
2023-01-10T11:10:55.437Z,18.36
2023-01-10T11:13:34.393Z,18.88
2023-01-10T11:16:04.776Z,17.47
2023-01-10T11:18:33.610Z,15.87
2023-01-10T11:21:04.910Z,16.37
2023-01-10T11:23:43.740Z,18.04
2023-01-10T11:26:25.493Z,16.68
2023-01-10T11:29:18.839Z,14.59
2023-01-10T11:31:47.533Z,17.15
2023-01-10T11:34:30.224Z,19.25
2023-01-10T11:37:04.809Z,21.56
2023-01-10T11:39:32.883Z,23.62
2023-01-10T11:42:25.695Z,25.13
2023-01-10T11:44:52.750Z,24.79
2023-01-10T11:47:21.112Z,25.79
2023-01-10T11:49:50.334Z,26.33
2023-01-10T11:52:17.223Z,27.00
2023-01-10T11:54:44.686Z,26.95
2023-01-10T11:57:22.770Z,27.73
2023-01-10T12:00:17.651Z,28.29
2023-01-10T12:02:45.127Z,28.31
2023-01-10T12:05:23.726Z,28.31
2023-01-10T12:08:06.991Z,28.10
2023-01-10T12:10:35.285Z,28.51
2023-01-10T12:13:15.244Z,28.89
2023-01-10T12:15:42.584Z,29.07
2023-01-10T12:18:12.304Z,29.42
2023-01-10T12:20:52.136Z,29.45
2023-01-10T12:23:22.096Z,29.33
2023-01-10T12:25:51.507Z,29.68
2023-01-10T12:28:27.772Z,29.54
2023-01-10T12:30:58.256Z,29.47
2023-01-10T12:33:29.646Z,29.48
2023-01-10T12:36:13.617Z,29.49
2023-01-10T12:39:04.613Z,30.02
2023-01-10T12:42:00.990Z,30.11
2023-01-10T12:44:44.335Z,30.22
2023-01-10T12:47:23.637Z,29.63
2023-01-10T12:50:03.333Z,29.82
2023-01-10T12:52:36.283Z,29.73
2023-01-10T12:55:03.839Z,30.25
2023-01-10T12:57:36.142Z,30.03
2023-01-10T13:00:08.015Z,30.41
2023-01-10T13:02:44.055Z,30.42
2023-01-10T13:05:23.807Z,30.52
2023-01-10T13:07:54.737Z,30.64
2023-01-10T13:10:24.747Z,31.02
2023-01-10T13:13:20.677Z,30.93
2023-01-10T13:16:09.224Z,30.75
2023-01-10T13:18:36.230Z,31.25
2023-01-10T13:21:14.565Z,32.31
2023-01-10T13:23:58.136Z,31.12
2023-01-10T13:26:25.367Z,31.07
2023-01-10T13:28:58.520Z,31.40
2023-01-10T13:31:35.341Z,31.35
2023-01-10T13:34:13.541Z,31.66
2023-01-10T13:36:43.741Z,31.62
2023-01-10T13:39:38.640Z,31.53
2023-01-10T13:42:24.831Z,31.61
2023-01-10T13:45:01.502Z,31.55
2023-01-10T13:47:40.768Z,32.25
2023-01-10T13:50:23.098Z,31.40
2023-01-10T13:52:51.581Z,31.41
2023-01-10T13:55:26.347Z,31.52
2023-01-10T13:57:56.391Z,32.64
2023-01-10T14:01:03.968Z,32.01
2023-01-10T14:03:44.688Z,32.89
2023-01-10T14:06:21.817Z,32.26
2023-01-10T14:08:54.566Z,31.81
2023-01-10T14:11:25.196Z,32.54
2023-01-10T14:13:55.713Z,33.21
2023-01-10T14:16:36.859Z,33.83
2023-01-10T14:19:08.223Z,33.76
2023-01-10T14:21:45.489Z,33.81
2023-01-10T14:24:50.425Z,34.80
2023-01-10T14:27:19.729Z,34.82
2023-01-10T14:29:53.693Z,35.21
2023-01-10T14:32:51.095Z,35.20
2023-01-10T14:35:24.842Z,35.25
2023-01-10T14:37:59.163Z,35.48
2023-01-10T14:40:31.086Z,35.67
2023-01-10T14:43:04.070Z,35.67
2023-01-10T14:45:37.005Z,35.45
2023-01-10T14:48:22.966Z,35.68
2023-01-10T14:50:49.858Z,36.13
2023-01-10T14:53:36.989Z,36.81
2023-01-10T14:56:03.988Z,36.91
2023-01-10T14:58:31.088Z,37.17
2023-01-10T15:00:58.631Z,37.39
2023-01-10T15:03:25.947Z,37.07
2023-01-10T15:05:56.853Z,37.56
2023-01-10T15:08:31.893Z,38.03
2023-01-10T15:11:08.216Z,39.00
2023-01-10T15:13:57.952Z,39.35
2023-01-10T15:16:28.191Z,39.73
2023-01-10T15:18:56.816Z,40.42
2023-01-10T15:21:25.777Z,41.49
2023-01-10T15:23:52.891Z,40.98
2023-01-10T15:26:25.986Z,41.59
2023-01-10T15:29:23.606Z,41.78
2023-01-10T15:31:53.595Z,41.59
2023-01-10T15:34:26.272Z,41.36
2023-01-10T15:36:56.278Z,41.31
2023-01-10T15:39:27.452Z,41.70
2023-01-10T15:42:01.352Z,41.61
2023-01-10T15:44:40.986Z,42.36
2023-01-10T15:47:33.747Z,42.51
2023-01-10T15:50:02.827Z,42.20
2023-01-10T15:52:59.067Z,42.15
2023-01-10T15:55:45.796Z,42.59
2023-01-10T15:58:30.167Z,42.66
2023-01-10T16:01:03.918Z,41.82
2023-01-10T16:07:27.696Z,41.75
2023-01-10T16:10:08.634Z,41.46
2023-01-10T16:16:19.336Z,41.30
2023-01-10T16:18:46.258Z,41.34
2023-01-10T16:22:08.322Z,41.51
2023-01-10T16:24:36.487Z,41.50
2023-01-10T16:27:06.550Z,41.69
2023-01-10T16:29:34.370Z,41.32
2023-01-10T16:32:16.284Z,41.34
2023-01-10T16:34:44.073Z,42.11
2023-01-10T16:37:11.049Z,41.78
2023-01-10T16:39:37.991Z,42.21
2023-01-10T16:42:23.570Z,42.21
2023-01-10T16:44:50.495Z,42.99
2023-01-10T16:47:17.394Z,42.18
2023-01-10T16:49:45.533Z,42.36
2023-01-10T16:52:14.828Z,42.38
2023-01-10T16:54:41.844Z,42.10
2023-01-10T16:57:11.464Z,42.11
2023-01-10T16:59:39.581Z,41.85
2023-01-10T17:02:17.886Z,42.66
2023-01-10T17:04:45.158Z,42.72
2023-01-10T17:07:12.719Z,42.37
2023-01-10T17:09:39.836Z,42.72
2023-01-10T17:12:13.638Z,42.82
2023-01-10T17:14:40.655Z,42.62
2023-01-10T17:17:07.543Z,43.47
2023-01-10T17:19:34.610Z,43.24
2023-01-10T17:22:01.516Z,43.45
2023-01-10T17:24:30.025Z,44.27
2023-01-10T17:26:57.422Z,43.98
2023-01-10T17:29:24.404Z,44.17
2023-01-10T17:31:51.469Z,44.37
2023-01-10T17:34:18.609Z,44.90
2023-01-10T17:36:45.488Z,45.20
2023-01-10T17:39:12.475Z,44.92
2023-01-10T17:41:39.666Z,46.67
2023-01-10T17:44:06.616Z,45.88
2023-01-10T17:46:33.918Z,46.11
2023-01-10T17:49:02.651Z,46.81
2023-01-10T17:51:29.626Z,47.55
2023-01-10T17:53:56.762Z,47.30
2023-01-10T17:56:24.686Z,46.75
2023-01-10T17:58:53.091Z,47.46
2023-01-10T18:01:25.183Z,47.37
2023-01-10T18:03:53.437Z,46.79
2023-01-10T18:06:25.070Z,47.26
2023-01-10T18:08:53.429Z,49.12
2023-01-10T18:11:21.565Z,49.52
2023-01-10T18:13:48.494Z,49.14
2023-01-10T18:16:15.495Z,49.34
2023-01-10T18:18:42.480Z,48.48
2023-01-10T18:21:14.622Z,50.60
2023-01-10T18:23:42.002Z,49.84
2023-01-10T18:26:11.599Z,49.62
2023-01-10T18:28:43.305Z,50.23
2023-01-10T18:31:16.781Z,49.76
2023-01-10T18:33:45.893Z,50.58
2023-01-10T18:36:16.185Z,49.64
2023-01-10T18:38:43.764Z,49.67
2023-01-10T18:41:11.608Z,49.87
2023-01-10T18:43:38.762Z,50.56
2023-01-10T18:46:12.939Z,50.39
2023-01-10T18:48:40.481Z,50.40
2023-01-10T18:51:09.109Z,50.25
2023-01-10T18:53:36.321Z,52.05
2023-01-10T18:56:04.890Z,51.20
2023-01-10T18:58:40.485Z,50.82
2023-01-10T19:01:19.766Z,52.17
2023-01-10T19:03:47.450Z,52.65
2023-01-10T19:06:16.939Z,50.56
2023-01-10T19:08:46.020Z,50.54
2023-01-10T19:11:16.033Z,52.08
2023-01-10T19:13:49.521Z,52.08
2023-01-10T19:16:20.678Z,51.18
2023-01-10T19:18:58.794Z,51.52
2023-01-10T19:21:27.294Z,52.30
2023-01-10T19:23:55.946Z,52.08
2023-01-10T19:26:24.392Z,51.34
2023-01-10T19:28:51.822Z,50.85
2023-01-10T19:31:24.234Z,50.85
2023-01-10T19:33:51.699Z,51.75
2023-01-10T19:36:20.501Z,50.78
2023-01-10T19:38:48.019Z,51.46
2023-01-10T19:41:16.452Z,50.84
2023-01-10T19:43:43.537Z,51.12
2023-01-10T19:46:13.016Z,50.87
2023-01-10T19:48:40.043Z,50.17
2023-01-10T19:51:12.596Z,50.68
2023-01-10T19:53:42.381Z,50.71
2023-01-10T19:56:10.078Z,50.93
2023-01-10T19:58:38.527Z,51.73
2023-01-10T20:01:12.410Z,51.65
2023-01-10T20:03:42.455Z,51.74
2023-01-10T20:06:14.123Z,51.33
2023-01-10T20:08:41.552Z,51.35
2023-01-10T20:11:08.883Z,51.82
2023-01-10T20:13:38.546Z,52.51
2023-01-10T20:16:06.590Z,51.89
2023-01-10T20:18:33.657Z,52.10
2023-01-10T20:21:06.998Z,52.40
2023-01-10T20:23:36.367Z,51.43
2023-01-10T20:26:06.756Z,51.79
2023-01-10T20:28:34.605Z,51.54
2023-01-10T20:31:02.207Z,51.99
2023-01-10T20:33:34.252Z,51.49
2023-01-10T20:36:04.370Z,51.68
2023-01-10T20:38:33.963Z,51.55
2023-01-10T20:41:07.827Z,51.20
2023-01-10T20:43:40.571Z,51.03
2023-01-10T20:46:17.179Z,51.30
2023-01-10T20:48:48.066Z,51.41
2023-01-10T20:51:22.447Z,51.08
2023-01-10T20:53:51.285Z,52.08
2023-01-10T20:56:21.739Z,52.31
2023-01-10T20:58:51.562Z,51.84
2023-01-10T21:01:33.607Z,51.85
2023-01-10T21:04:02.574Z,51.86
2023-01-10T21:06:29.713Z,51.64
2023-01-10T21:08:57.304Z,51.93
2023-01-10T21:11:25.083Z,52.00
2023-01-10T21:13:52.522Z,52.16
2023-01-10T21:16:22.329Z,52.24
2023-01-10T21:18:50.723Z,53.07
2023-01-10T21:21:22.578Z,53.04
2023-01-10T21:23:50.057Z,53.47
2023-01-10T21:26:17.324Z,53.17
2023-01-10T21:28:49.010Z,53.54
2023-01-10T21:31:18.760Z,53.86
2023-01-10T21:33:46.099Z,52.63
2023-01-10T21:36:14.503Z,52.39
2023-01-10T21:38:41.900Z,52.74
2023-01-10T21:41:38.854Z,54.28
2023-01-10T21:44:07.579Z,53.73
2023-01-10T21:46:35.492Z,53.83
2023-01-10T21:49:03.593Z,53.70
2023-01-10T21:51:30.546Z,54.16
2023-01-10T21:53:57.906Z,53.38
2023-01-10T21:56:25.090Z,53.52
2023-01-10T21:58:52.427Z,54.08
2023-01-10T22:01:19.501Z,53.73
2023-01-10T22:03:46.680Z,53.87
2023-01-10T22:06:14.015Z,53.99
2023-01-10T22:08:41.569Z,54.15
2023-01-10T22:11:10.916Z,53.90
2023-01-10T22:13:38.656Z,53.91
2023-01-10T22:16:07.106Z,54.14
2023-01-10T22:18:34.343Z,54.66
2023-01-10T22:21:03.646Z,54.35
2023-01-10T22:23:34.738Z,54.32
2023-01-10T22:26:07.144Z,53.95
2023-01-10T22:28:34.453Z,54.85
2023-01-10T22:31:01.931Z,54.96
2023-01-10T22:33:44.850Z,54.94
2023-01-10T22:36:17.353Z,55.05
2023-01-10T22:38:46.823Z,55.17
2023-01-10T22:41:17.098Z,54.83
2023-01-10T22:43:52.182Z,55.01
2023-01-10T22:46:19.438Z,54.68
2023-01-10T22:48:46.572Z,54.68
2023-01-10T22:51:15.058Z,54.32
2023-01-10T22:53:42.288Z,54.56
2023-01-10T22:56:11.377Z,55.32
2023-01-10T22:58:38.473Z,54.62
2023-01-10T23:01:07.032Z,55.50
2023-01-10T23:03:34.630Z,55.53
2023-01-10T23:06:01.585Z,55.79
2023-01-10T23:08:28.608Z,55.66
2023-01-10T23:10:55.491Z,55.07
2023-01-10T23:13:23.216Z,55.63
2023-01-10T23:16:28.610Z,56.05
2023-01-10T23:18:57.628Z,54.69
2023-01-10T23:21:25.562Z,55.01
2023-01-10T23:23:52.454Z,55.03
2023-01-10T23:26:19.497Z,54.67
2023-01-10T23:28:49.263Z,55.15
2023-01-10T23:31:24.309Z,54.85
2023-01-10T23:33:52.363Z,54.73
2023-01-10T23:36:19.751Z,54.78
2023-01-10T23:38:48.041Z,54.74
2023-01-10T23:41:15.088Z,54.11
2023-01-10T23:43:42.786Z,55.25
2023-01-10T23:46:09.820Z,54.91
2023-01-10T23:48:36.782Z,55.41
2023-01-10T23:51:03.836Z,55.65
2023-01-10T23:53:30.721Z,55.54
2023-01-10T23:55:58.210Z,55.78
2023-01-10T23:58:25.800Z,56.22
